Time;durP1;ratioP1;P1;durP2;ratioP2;P2;SDS_P1;SDS_P2;PMS_P1;PMS_P2;Temp;Humidity;BMP_temperature;BMP_pressure;BME280_temperature;BME280_humidity;BME280_pressure;Samples;Min_cycle;Max_cycle;Signal;HPM_P1;HPM_P2
2021/10/08 00:00:26;;;;;;;52.78;27.30;;;;;;;;;;5065198;28;20053;-67
2021/10/08 00:02:52;;;;;;;58.00;28.70;;;;;;;;;;5060010;28;20048;-67
2021/10/08 00:05:19;;;;;;;59.53;27.70;;;;;;;;;;5061177;28;20071;-68
2021/10/08 00:07:45;;;;;;;56.67;27.60;;;;;;;;;;5062261;28;20049;-67
2021/10/08 00:10:12;;;;;;;63.17;26.70;;;;;;;;;;5062561;28;20641;-67
2021/10/08 00:12:38;;;;;;;64.35;28.52;;;;;;;;;;5063600;28;20116;-67
2021/10/08 00:15:05;;;;;;;63.90;27.65;;;;;;;;;;5063808;28;20045;-67
2021/10/08 00:17:32;;;;;;;57.17;25.25;;;;;;;;;;5062881;28;20492;-67
2021/10/08 00:19:59;;;;;;;65.37;27.43;;;;;;;;;;5061725;28;20151;-67
2021/10/08 00:22:25;;;;;;;57.28;25.17;;;;;;;;;;5062420;28;20084;-67
2021/10/08 00:24:53;;;;;;;67.15;28.83;;;;;;;;;;5062811;28;20119;-67
2021/10/08 00:27:19;;;;;;;60.50;27.48;;;;;;;;;;5061184;28;20044;-67
2021/10/08 00:29:46;;;;;;;64.32;27.13;;;;;;;;;;5063879;28;20151;-67
2021/10/08 00:32:12;;;;;;;58.60;26.65;;;;;;;;;;5065352;28;20124;-67
2021/10/08 00:34:39;;;;;;;67.38;26.38;;;;;;;;;;5060442;28;20603;-67
2021/10/08 00:37:06;;;;;;;56.47;25.63;;;;;;;;;;5065755;28;20128;-69
2021/10/08 00:39:33;;;;;;;54.97;25.45;;;;;;;;;;5047125;28;20123;-67
2021/10/08 00:42:00;;;;;;;58.37;25.97;;;;;;;;;;5061810;28;20048;-67
2021/10/08 00:44:28;;;;;;;60.27;26.07;;;;;;;;;;5065009;28;20370;-68
2021/10/08 00:46:54;;;;;;;46.88;22.67;;;;;;;;;;5058450;28;20171;-67
2021/10/08 00:49:21;;;;;;;51.92;24.48;;;;;;;;;;5058263;28;20045;-67
2021/10/08 00:51:47;;;;;;;60.47;26.17;;;;;;;;;;5065154;28;20508;-67
2021/10/08 00:54:14;;;;;;;57.88;25.58;;;;;;;;;;5063770;28;20128;-68
2021/10/08 00:56:41;;;;;;;50.95;24.52;;;;;;;;;;5061784;28;20132;-67
2021/10/08 00:59:07;;;;;;;64.43;26.80;;;;;;;;;;5062069;28;20144;-67
2021/10/08 01:01:35;;;;;;;73.35;28.52;;;;;;;;;;5059869;28;20554;-68
2021/10/08 01:04:04;;;;;;;67.87;28.93;;;;;;;;;;5065716;28;20052;-68
2021/10/08 01:06:30;;;;;;;75.03;30.15;;;;;;;;;;5061553;28;20136;-68
2021/10/08 01:08:57;;;;;;;84.28;30.92;;;;;;;;;;5063565;28;20563;-67
2021/10/08 01:11:23;;;;;;;83.13;31.48;;;;;;;;;;5060492;28;20045;-67
2021/10/08 01:13:50;;;;;;;101.60;32.90;;;;;;;;;;5062303;28;20095;-67
2021/10/08 01:16:21;;;;;;;71.38;27.85;;;;;;;;;;5060440;28;20048;-67
2021/10/08 01:18:48;;;;;;;85.53;31.80;;;;;;;;;;5059351;28;20045;-67
2021/10/08 01:21:14;;;;;;;87.70;31.60;;;;;;;;;;5061072;28;20037;-68
2021/10/08 01:23:41;;;;;;;61.17;26.07;;;;;;;;;;5064176;28;20571;-67
2021/10/08 01:26:08;;;;;;;51.80;24.65;;;;;;;;;;5061834;28;20045;-68
2021/10/08 01:28:34;;;;;;;57.60;25.92;;;;;;;;;;5060956;28;20137;-67
2021/10/08 01:31:01;;;;;;;54.50;27.02;;;;;;;;;;5064654;28;20075;-67
2021/10/08 01:33:27;;;;;;;58.73;26.10;;;;;;;;;;5070718;28;20076;-68
2021/10/08 01:35:54;;;;;;;70.50;26.25;;;;;;;;;;5068392;28;20370;-68
2021/10/08 01:38:20;;;;;;;74.65;24.17;;;;;;;;;;5063751;28;20168;-68
2021/10/08 01:40:47;;;;;;;55.65;20.38;;;;;;;;;;5061368;28;20120;-67
2021/10/08 01:43:13;;;;;;;220.55;29.35;;;;;;;;;;5058217;28;20535;-68
2021/10/08 01:45:41;;;;;;;71.93;24.75;;;;;;;;;;5056030;28;20124;-67
2021/10/08 01:48:07;;;;;;;59.03;23.65;;;;;;;;;;5062530;28;20187;-68
2021/10/08 01:50:34;;;;;;;60.95;26.80;;;;;;;;;;5067028;28;20128;-68
2021/10/08 01:53:01;;;;;;;74.15;27.70;;;;;;;;;;5064084;28;20084;-67
2021/10/08 01:55:27;;;;;;;56.80;25.60;;;;;;;;;;5065949;28;20072;-67
2021/10/08 01:57:54;;;;;;;69.88;28.58;;;;;;;;;;5068813;28;20127;-68
2021/10/08 02:00:20;;;;;;;66.93;28.40;;;;;;;;;;5061242;28;20103;-68
2021/10/08 02:02:47;;;;;;;59.10;26.65;;;;;;;;;;5069427;28;20136;-67
2021/10/08 02:05:13;;;;;;;76.80;30.33;;;;;;;;;;5061945;28;20123;-67
2021/10/08 02:07:39;;;;;;;80.95;30.45;;;;;;;;;;5068641;28;20427;-67
2021/10/08 02:10:09;;;;;;;77.05;30.30;;;;;;;;;;5054707;28;20132;-67
2021/10/08 02:12:36;;;;;;;67.57;31.67;;;;;;;;;;5059720;28;20564;-68
2021/10/08 02:15:03;;;;;;;71.60;28.98;;;;;;;;;;5065406;28;20127;-67
2021/10/08 02:17:29;;;;;;;83.00;31.83;;;;;;;;;;5066384;28;20061;-68
2021/10/08 02:19:56;;;;;;;70.22;28.42;;;;;;;;;;5065457;28;20072;-67
2021/10/08 02:22:22;;;;;;;66.78;30.27;;;;;;;;;;5066422;28;20083;-67
2021/10/08 02:24:49;;;;;;;68.30;29.13;;;;;;;;;;5070462;28;20144;-68
2021/10/08 02:27:15;;;;;;;63.17;29.02;;;;;;;;;;5063939;28;20154;-67
2021/10/08 02:29:43;;;;;;;71.55;31.35;;;;;;;;;;5063572;28;20088;-67
2021/10/08 02:32:09;;;;;;;85.07;33.35;;;;;;;;;;5067616;28;20092;-68
2021/10/08 02:34:36;;;;;;;74.80;30.48;;;;;;;;;;5064293;28;20076;-68
2021/10/08 02:37:03;;;;;;;70.72;30.50;;;;;;;;;;5067336;28;20080;-68
2021/10/08 02:39:29;;;;;;;66.72;30.00;;;;;;;;;;5060953;28;20152;-67
2021/10/08 02:41:56;;;;;;;83.00;31.33;;;;;;;;;;5061298;28;20132;-67
2021/10/08 02:44:22;;;;;;;72.80;30.50;;;;;;;;;;5065399;28;20060;-67
2021/10/08 02:46:49;;;;;;;65.50;30.15;;;;;;;;;;5065923;28;20128;-68
2021/10/08 02:49:21;;;;;;;74.47;32.05;;;;;;;;;;5065754;28;20044;-67
2021/10/08 02:51:48;;;;;;;65.45;33.10;;;;;;;;;;5067885;28;20052;-67
2021/10/08 02:54:15;;;;;;;72.70;33.08;;;;;;;;;;5066013;28;20087;-67
2021/10/08 02:56:41;;;;;;;74.95;32.50;;;;;;;;;;5064598;28;20131;-68
2021/10/08 02:59:08;;;;;;;74.40;33.00;;;;;;;;;;5061868;28;20091;-67
2021/10/08 03:01:34;;;;;;;70.97;31.83;;;;;;;;;;5067165;28;20063;-67
2021/10/08 03:04:03;;;;;;;68.45;32.20;;;;;;;;;;5065733;28;20063;-67
2021/10/08 03:06:30;;;;;;;78.72;33.53;;;;;;;;;;5064546;28;20064;-68
2021/10/08 03:08:57;;;;;;;71.18;32.03;;;;;;;;;;5065498;28;20048;-67
2021/10/08 03:11:26;;;;;;;76.13;35.55;;;;;;;;;;5065661;28;20128;-67
2021/10/08 03:13:52;;;;;;;67.82;31.75;;;;;;;;;;5042576;28;20091;-67
2021/10/08 03:16:19;;;;;;;85.35;37.40;;;;;;;;;;5055484;28;20144;-67
2021/10/08 03:18:46;;;;;;;87.13;34.95;;;;;;;;;;5040947;28;20124;-68
2021/10/08 03:21:13;;;;;;;91.38;37.28;;;;;;;;;;5045718;28;20080;-67
2021/10/08 03:23:39;;;;;;;77.60;33.95;;;;;;;;;;5045163;28;20241;-68
2021/10/08 03:26:06;;;;;;;97.97;36.47;;;;;;;;;;5041808;28;20051;-67
2021/10/08 03:28:34;;;;;;;102.88;37.60;;;;;;;;;;5042303;28;20159;-67
2021/10/08 03:31:00;;;;;;;90.70;37.03;;;;;;;;;;5044503;28;20605;-67
2021/10/08 03:33:26;;;;;;;92.75;36.95;;;;;;;;;;5047356;28;20136;-68
2021/10/08 03:35:53;;;;;;;104.33;36.07;;;;;;;;;;5043687;28;20567;-67
2021/10/08 03:38:20;;;;;;;114.82;40.53;;;;;;;;;;5046220;28;20060;-67
2021/10/08 03:43:44;;;;;;;100.07;36.90;;;;;;;;;;5025716;28;20140;-68
2021/10/08 03:46:11;;;;;;;99.93;37.80;;;;;;;;;;5038720;28;20164;-68
2021/10/08 03:51:24;;;;;;;98.10;37.17;;;;;;;;;;5045158;28;20068;-67
2021/10/08 03:53:50;;;;;;;112.50;38.08;;;;;;;;;;5040269;28;20136;-68
2021/10/08 03:56:16;;;;;;;97.20;36.20;;;;;;;;;;5048349;28;20081;-68
2021/10/08 03:58:43;;;;;;;109.75;37.40;;;;;;;;;;5040699;28;20055;-67
2021/10/08 04:01:09;;;;;;;139.60;38.83;;;;;;;;;;5045534;28;20087;-67
2021/10/08 04:03:36;;;;;;;118.32;37.95;;;;;;;;;;5043300;28;20080;-68
2021/10/08 04:06:02;;;;;;;117.07;36.63;;;;;;;;;;5048117;28;20131;-67
2021/10/08 04:08:29;;;;;;;86.53;32.13;;;;;;;;;;5040070;28;20540;-68
2021/10/08 04:10:56;;;;;;;131.05;38.45;;;;;;;;;;5051807;28;20131;-68
2021/10/08 04:13:27;;;;;;;138.07;41.22;;;;;;;;;;5038510;28;20071;-67
2021/10/08 04:15:53;;;;;;;140.52;42.03;;;;;;;;;;5052319;28;20596;-67
2021/10/08 04:18:20;;;;;;;125.10;41.45;;;;;;;;;;5060961;28;20048;-68
2021/10/08 04:20:47;;;;;;;103.93;38.20;;;;;;;;;;5061585;28;20092;-68
2021/10/08 04:23:14;;;;;;;88.47;32.72;;;;;;;;;;5066759;28;20131;-67
2021/10/08 04:25:40;;;;;;;116.25;39.53;;;;;;;;;;5065520;28;20087;-67
2021/10/08 04:28:07;;;;;;;110.88;39.25;;;;;;;;;;5061163;28;20064;-68
2021/10/08 04:30:34;;;;;;;125.55;41.33;;;;;;;;;;5062464;28;20106;-67
2021/10/08 04:33:00;;;;;;;136.55;45.38;;;;;;;;;;5064933;28;20555;-67
2021/10/08 04:35:28;;;;;;;123.68;44.35;;;;;;;;;;5063455;28;20403;-67
2021/10/08 04:37:55;;;;;;;214.70;54.22;;;;;;;;;;5063846;28;20469;-68
2021/10/08 04:40:21;;;;;;;387.45;64.30;;;;;;;;;;5063884;28;20071;-67
2021/10/08 04:42:49;;;;;;;558.65;64.28;;;;;;;;;;5054417;28;20518;-66
2021/10/08 04:45:15;;;;;;;582.88;65.68;;;;;;;;;;5058837;28;20139;-67
2021/10/08 04:47:41;;;;;;;578.33;61.97;;;;;;;;;;5063762;28;20069;-67
2021/10/08 04:50:08;;;;;;;750.75;71.00;;;;;;;;;;5063297;28;20130;-67
2021/10/08 04:52:34;;;;;;;565.45;56.22;;;;;;;;;;5061763;28;20090;-67
2021/10/08 04:55:01;;;;;;;684.50;64.20;;;;;;;;;;5059811;28;20131;-67
2021/10/08 04:57:28;;;;;;;730.60;65.63;;;;;;;;;;5058105;28;20139;-67
2021/10/08 04:59:54;;;;;;;575.20;55.75;;;;;;;;;;5058836;28;20409;-67
2021/10/08 05:02:20;;;;;;;625.00;58.22;;;;;;;;;;5065089;28;20096;-67
2021/10/08 05:04:47;;;;;;;653.70;60.45;;;;;;;;;;5060519;28;20045;-67
2021/10/08 05:07:13;;;;;;;732.40;64.63;;;;;;;;;;5063399;28;20591;-67
2021/10/08 05:09:40;;;;;;;583.95;57.58;;;;;;;;;;5065164;28;20048;-67
2021/10/08 05:12:07;;;;;;;452.40;48.47;;;;;;;;;;5069413;28;20076;-68
2021/10/08 05:14:33;;;;;;;653.28;60.88;;;;;;;;;;5066874;28;20087;-67
2021/10/08 05:16:59;;;;;;;590.10;58.35;;;;;;;;;;5065546;28;20058;-67
2021/10/08 05:19:28;;;;;;;572.97;59.25;;;;;;;;;;5067528;28;20056;-67
2021/10/08 05:21:55;;;;;;;730.30;67.13;;;;;;;;;;5069573;28;20206;-67
2021/10/08 05:24:22;;;;;;;638.72;57.08;;;;;;;;;;5065451;28;20143;-67
2021/10/08 05:26:50;;;;;;;597.15;59.03;;;;;;;;;;5061770;28;20100;-67
2021/10/08 05:29:17;;;;;;;762.47;68.45;;;;;;;;;;5069557;28;20084;-67
2021/10/08 05:31:43;;;;;;;661.97;64.90;;;;;;;;;;5064805;28;20132;-67
2021/10/08 05:34:11;;;;;;;566.33;59.23;;;;;;;;;;5064248;28;20143;-67
2021/10/08 05:36:37;;;;;;;639.22;65.70;;;;;;;;;;5060672;28;20326;-68
2021/10/08 05:39:04;;;;;;;759.67;69.95;;;;;;;;;;5067659;28;20129;-67
2021/10/08 05:41:31;;;;;;;632.42;62.75;;;;;;;;;;5066260;28;20641;-67
2021/10/08 05:43:57;;;;;;;480.90;54.38;;;;;;;;;;5066845;28;20111;-67
2021/10/08 05:46:23;;;;;;;546.28;61.90;;;;;;;;;;5067178;28;20162;-67
2021/10/08 05:48:51;;;;;;;683.53;69.82;;;;;;;;;;5066114;28;20049;-67
2021/10/08 05:51:17;;;;;;;564.00;62.72;;;;;;;;;;5068507;28;20143;-67
2021/10/08 05:53:44;;;;;;;476.67;60.00;;;;;;;;;;5066553;28;20123;-67
2021/10/08 05:56:12;;;;;;;675.40;72.50;;;;;;;;;;5062741;28;20136;-67
2021/10/08 05:58:38;;;;;;;385.08;56.53;;;;;;;;;;5064170;28;20064;-67
2021/10/08 06:01:05;;;;;;;496.33;61.28;;;;;;;;;;5059268;28;20171;-67
2021/10/08 06:03:32;;;;;;;597.10;69.23;;;;;;;;;;5057416;28;20499;-67
2021/10/08 06:05:58;;;;;;;419.85;62.65;;;;;;;;;;5068054;28;20080;-67
2021/10/08 06:08:24;;;;;;;431.88;66.65;;;;;;;;;;5063563;28;20084;-67
2021/10/08 06:10:51;;;;;;;385.00;63.60;;;;;;;;;;5052693;28;20049;-67
2021/10/08 06:13:17;;;;;;;447.50;67.00;;;;;;;;;;5068796;28;20052;-67
2021/10/08 06:15:44;;;;;;;432.17;69.80;;;;;;;;;;5063921;28;20135;-67
2021/10/08 06:18:10;;;;;;;298.48;56.38;;;;;;;;;;5066828;28;20063;-67
2021/10/08 06:20:37;;;;;;;417.38;68.80;;;;;;;;;;5058874;28;20088;-67
2021/10/08 06:23:03;;;;;;;490.50;74.10;;;;;;;;;;5071826;28;20098;-67
2021/10/08 06:25:30;;;;;;;433.00;73.53;;;;;;;;;;5071453;28;20062;-67
2021/10/08 06:27:56;;;;;;;383.42;68.35;;;;;;;;;;5068267;28;20095;-68
2021/10/08 06:30:24;;;;;;;428.67;69.75;;;;;;;;;;5063517;28;20715;-67
2021/10/08 06:32:51;;;;;;;307.35;62.45;;;;;;;;;;5065014;28;20123;-67
2021/10/08 06:35:17;;;;;;;299.25;56.72;;;;;;;;;;5065466;28;20059;-67
2021/10/08 06:37:44;;;;;;;316.15;64.35;;;;;;;;;;5067102;28;20076;-67
2021/10/08 06:40:11;;;;;;;288.02;60.17;;;;;;;;;;5066411;28;20179;-68
2021/10/08 06:42:37;;;;;;;216.73;54.90;;;;;;;;;;5068256;28;20437;-68
2021/10/08 06:45:04;;;;;;;259.00;61.73;;;;;;;;;;5062530;28;20127;-67
2021/10/08 06:47:33;;;;;;;221.80;55.90;;;;;;;;;;5058787;28;20068;-67
2021/10/08 06:50:00;;;;;;;219.18;55.90;;;;;;;;;;5066465;28;20152;-67
2021/10/08 06:52:26;;;;;;;205.23;54.63;;;;;;;;;;5057224;28;20469;-68
2021/10/08 06:54:53;;;;;;;221.88;54.08;;;;;;;;;;5057882;28;20135;-67
2021/10/08 06:57:20;;;;;;;205.25;55.28;;;;;;;;;;5061195;28;20131;-68
2021/10/08 06:59:46;;;;;;;207.60;52.50;;;;;;;;;;5067794;28;20080;-68
2021/10/08 07:02:13;;;;;;;202.90;55.37;;;;;;;;;;5068257;28;20496;-67
2021/10/08 07:04:39;;;;;;;242.80;57.30;;;;;;;;;;5061380;28;20073;-67
2021/10/08 07:07:05;;;;;;;192.57;54.85;;;;;;;;;;5062451;28;20055;-67
2021/10/08 07:09:32;;;;;;;238.43;58.00;;;;;;;;;;5058582;28;20135;-68
2021/10/08 07:11:58;;;;;;;234.48;57.80;;;;;;;;;;5066397;28;20075;-67
2021/10/08 07:14:25;;;;;;;159.63;53.15;;;;;;;;;;5060332;28;20131;-67
2021/10/08 07:16:55;;;;;;;233.82;60.78;;;;;;;;;;5062221;28;20080;-67
2021/10/08 07:19:22;;;;;;;196.55;56.15;;;;;;;;;;5061742;28;20111;-67
2021/10/08 07:21:48;;;;;;;209.63;58.53;;;;;;;;;;5065092;28;20160;-67
2021/10/08 07:24:16;;;;;;;163.82;50.08;;;;;;;;;;5059858;28;20087;-68
2021/10/08 07:26:42;;;;;;;182.95;52.17;;;;;;;;;;5061470;28;20596;-67
2021/10/08 07:29:09;;;;;;;159.25;52.20;;;;;;;;;;5064721;28;20098;-68
2021/10/08 07:31:36;;;;;;;179.70;53.30;;;;;;;;;;5062701;28;20071;-68
2021/10/08 07:34:02;;;;;;;163.52;51.00;;;;;;;;;;5063163;28;20491;-68
2021/10/08 07:36:28;;;;;;;194.88;54.75;;;;;;;;;;5060268;28;20080;-67
2021/10/08 07:38:55;;;;;;;152.93;50.43;;;;;;;;;;5069095;28;20484;-68
2021/10/08 07:41:23;;;;;;;128.68;48.00;;;;;;;;;;5062318;28;20084;-68
2021/10/08 07:43:50;;;;;;;144.38;48.85;;;;;;;;;;5055427;28;20079;-68
2021/10/08 07:46:17;;;;;;;139.38;49.80;;;;;;;;;;5064348;28;20048;-68
2021/10/08 07:48:43;;;;;;;107.47;44.53;;;;;;;;;;5060590;28;20461;-68
2021/10/08 07:51:10;;;;;;;104.93;42.95;;;;;;;;;;5063232;28;20514;-68
2021/10/08 07:53:37;;;;;;;111.20;44.15;;;;;;;;;;5059053;28;20494;-68
2021/10/08 07:56:03;;;;;;;103.90;44.08;;;;;;;;;;5061052;28;20153;-68
2021/10/08 07:58:30;;;;;;;100.65;40.40;;;;;;;;;;5063799;28;20153;-67
2021/10/08 08:00:58;;;;;;;80.50;36.05;;;;;;;;;;5060782;28;20041;-68
2021/10/08 08:03:24;;;;;;;93.60;40.10;;;;;;;;;;5067630;28;20095;-68
2021/10/08 08:05:51;;;;;;;76.22;37.25;;;;;;;;;;5056533;28;20053;-68
2021/10/08 08:08:18;;;;;;;79.80;36.83;;;;;;;;;;5063007;28;20081;-68
2021/10/08 08:10:44;;;;;;;64.53;33.63;;;;;;;;;;5066302;28;20186;-68
2021/10/08 08:13:11;;;;;;;70.85;35.35;;;;;;;;;;5057862;28;20136;-68
2021/10/08 08:15:38;;;;;;;80.20;36.55;;;;;;;;;;5061935;28;20136;-67
2021/10/08 08:18:05;;;;;;;65.28;34.55;;;;;;;;;;5063758;28;20056;-68
2021/10/08 08:20:31;;;;;;;68.70;33.88;;;;;;;;;;5064188;28;20167;-68
2021/10/08 08:22:58;;;;;;;52.30;29.95;;;;;;;;;;5063026;28;20056;-68
2021/10/08 08:25:25;;;;;;;58.63;30.52;;;;;;;;;;5061457;28;20492;-68
2021/10/08 08:27:51;;;;;;;57.80;30.20;;;;;;;;;;5069200;28;20091;-68
2021/10/08 08:30:18;;;;;;;49.47;29.77;;;;;;;;;;5065836;28;20464;-69
2021/10/08 08:32:44;;;;;;;46.20;28.30;;;;;;;;;;5062379;28;20106;-68
2021/10/08 08:35:11;;;;;;;49.47;25.63;;;;;;;;;;5058675;28;20087;-68
2021/10/08 08:37:38;;;;;;;44.40;23.93;;;;;;;;;;5061458;28;20088;-68
2021/10/08 08:40:06;;;;;;;48.95;25.40;;;;;;;;;;5063042;28;20797;-68
2021/10/08 08:42:33;;;;;;;32.08;22.08;;;;;;;;;;5063182;28;20115;-68
2021/10/08 08:45:00;;;;;;;34.60;22.13;;;;;;;;;;5063908;28;20512;-68
2021/10/08 08:47:26;;;;;;;30.50;21.58;;;;;;;;;;5068437;28;20131;-68
2021/10/08 08:49:53;;;;;;;40.20;20.52;;;;;;;;;;5067969;28;20053;-67
2021/10/08 08:52:21;;;;;;;30.15;19.45;;;;;;;;;;5065089;28;20083;-68
2021/10/08 08:54:48;;;;;;;26.23;18.17;;;;;;;;;;5060788;28;20601;-68
2021/10/08 08:57:18;;;;;;;28.15;17.63;;;;;;;;;;5057892;28;20045;-68
2021/10/08 09:00:03;;;;;;;24.08;16.95;;;;;;;;;;5058282;28;20061;-68
2021/10/08 09:02:32;;;;;;;27.10;15.90;;;;;;;;;;5059887;28;20505;-68
2021/10/08 09:04:59;;;;;;;27.80;16.33;;;;;;;;;;5062191;28;20091;-68
2021/10/08 09:07:35;;;;;;;25.25;13.77;;;;;;;;;;5064654;28;20076;-68
2021/10/08 09:10:19;;;;;;;25.40;14.27;;;;;;;;;;5061982;28;20105;-68
2021/10/08 09:12:46;;;;;;;18.60;12.60;;;;;;;;;;5064767;28;20079;-68
2021/10/08 09:15:14;;;;;;;21.75;12.32;;;;;;;;;;5063296;28;20110;-68
2021/10/08 09:17:41;;;;;;;22.60;13.20;;;;;;;;;;5059205;28;20087;-68
2021/10/08 09:20:11;;;;;;;21.35;12.75;;;;;;;;;;5056321;28;20148;-68
2021/10/08 09:22:39;;;;;;;22.02;12.57;;;;;;;;;;5057691;28;20127;-68
2021/10/08 09:25:08;;;;;;;22.73;12.40;;;;;;;;;;5062714;28;20052;-68
2021/10/08 09:27:35;;;;;;;21.65;11.30;;;;;;;;;;5054699;28;20050;-68
2021/10/08 09:30:03;;;;;;;16.05;10.93;;;;;;;;;;5057890;28;20072;-68
2021/10/08 09:32:38;;;;;;;17.27;11.30;;;;;;;;;;5061018;28;20051;-68
2021/10/08 09:35:06;;;;;;;17.23;9.93;;;;;;;;;;5057988;28;20123;-68
2021/10/08 09:37:32;;;;;;;;;;;;;;;;;;5065897;28;20091;-68
2021/10/08 09:39:59;;;;;;;17.95;9.38;;;;;;;;;;5058428;28;19932;-68
2021/10/08 09:42:36;;;;;;;11.47;9.10;;;;;;;;;;5063322;28;20144;-68
2021/10/08 09:45:03;;;;;;;17.73;9.10;;;;;;;;;;5059880;28;20083;-68
2021/10/08 09:47:30;;;;;;;14.00;9.20;;;;;;;;;;5063701;28;20131;-68
2021/10/08 09:50:08;;;;;;;18.67;9.07;;;;;;;;;;5064440;28;20052;-68
2021/10/08 09:52:34;;;;;;;12.10;7.63;;;;;;;;;;5063161;28;20102;-68
2021/10/08 09:55:03;;;;;;;15.90;7.88;;;;;;;;;;5060996;28;20140;-68
2021/10/08 09:57:50;;;;;;;14.75;7.97;;;;;;;;;;5062647;28;20045;-68
2021/10/08 10:00:35;;;;;;;14.60;7.57;;;;;;;;;;5066549;28;20041;-68
2021/10/08 10:03:06;;;;;;;14.38;7.82;;;;;;;;;;5065254;28;20044;-68
2021/10/08 10:05:33;;;;;;;17.05;6.93;;;;;;;;;;5062128;28;20128;-68
2021/10/08 10:07:59;;;;;;;14.27;6.47;;;;;;;;;;5066007;28;20545;-68
2021/10/08 10:10:26;;;;;;;9.20;6.20;;;;;;;;;;5064758;28;20496;-69
2021/10/08 10:12:53;;;;;;;11.50;6.10;;;;;;;;;;5060729;28;20445;-69
2021/10/08 10:15:20;;;;;;;13.05;6.00;;;;;;;;;;5070013;28;20080;-68
2021/10/08 10:17:47;;;;;;;12.63;6.13;;;;;;;;;;5057913;28;20124;-69
2021/10/08 10:20:14;;;;;;;12.38;6.03;;;;;;;;;;5058706;28;20053;-68
2021/10/08 10:22:41;;;;;;;10.43;6.33;;;;;;;;;;5067498;28;20481;-69
2021/10/08 10:25:10;;;;;;;10.45;6.07;;;;;;;;;;5063354;28;20574;-69
2021/10/08 10:27:41;;;;;;;8.48;5.95;;;;;;;;;;5066898;28;20072;-68
2021/10/08 10:30:09;;;;;;;13.40;5.35;;;;;;;;;;5049653;28;20645;-69
2021/10/08 10:32:36;;;;;;;9.00;5.10;;;;;;;;;;5061315;28;20076;-68
2021/10/08 10:35:04;;;;;;;11.98;4.97;;;;;;;;;;5064488;28;20091;-69
2021/10/08 10:37:41;;;;;;;7.53;4.20;;;;;;;;;;5061458;28;20144;-68
2021/10/08 10:40:14;;;;;;;11.15;4.25;;;;;;;;;;5056712;28;20048;-69
2021/10/08 10:42:41;;;;;;;12.10;4.93;;;;;;;;;;5058449;28;20143;-68
2021/10/08 10:45:11;;;;;;;7.65;4.45;;;;;;;;;;5063362;28;20041;-69
2021/10/08 10:47:39;;;;;;;6.90;4.30;;;;;;;;;;5059252;28;20390;-69
2021/10/08 10:50:19;;;;;;;14.18;4.53;;;;;;;;;;5066205;28;20119;-69
2021/10/08 10:52:56;;;;;;;8.00;4.20;;;;;;;;;;5063937;28;20084;-69
2021/10/08 10:55:23;;;;;;;11.02;4.57;;;;;;;;;;5064965;28;20123;-69
2021/10/08 10:57:51;;;;;;;8.65;4.55;;;;;;;;;;5062630;28;20045;-69
2021/10/08 11:00:25;;;;;;;8.35;3.90;;;;;;;;;;5062496;28;20128;-69
2021/10/08 11:03:02;;;;;;;7.90;4.38;;;;;;;;;;5058482;28;20087;-69
2021/10/08 11:05:30;;;;;;;8.30;3.80;;;;;;;;;;5069775;28;20128;-69
2021/10/08 11:08:05;;;;;;;9.38;3.95;;;;;;;;;;5065943;28;20624;-69
2021/10/08 11:10:32;;;;;;;9.18;4.03;;;;;;;;;;5060947;28;20080;-69
2021/10/08 11:13:18;;;;;;;8.50;3.55;;;;;;;;;;5060780;28;20131;-69
2021/10/08 11:15:53;;;;;;;11.27;4.60;;;;;;;;;;5065853;28;20117;-68
2021/10/08 11:18:39;;;;;;;10.48;4.80;;;;;;;;;;5061994;28;20037;-69
2021/10/08 11:21:07;;;;;;;11.57;4.00;;;;;;;;;;5062427;28;20076;-69
2021/10/08 11:23:36;;;;;;;9.85;4.68;;;;;;;;;;5062252;28;20447;-69
2021/10/08 11:26:05;;;;;;;15.18;4.78;;;;;;;;;;5069728;28;20132;-69
2021/10/08 11:28:50;;;;;;;8.50;4.07;;;;;;;;;;5064606;28;20475;-69
2021/10/08 11:31:18;;;;;;;8.05;3.63;;;;;;;;;;5064754;28;20096;-69
2021/10/08 11:33:49;;;;;;;8.95;4.40;;;;;;;;;;5058258;28;20053;-69
2021/10/08 11:36:29;;;;;;;8.70;4.45;;;;;;;;;;5056984;28;20084;-69
2021/10/08 11:39:08;;;;;;;11.00;4.40;;;;;;;;;;5060790;28;20123;-69
2021/10/08 11:41:35;;;;;;;10.15;4.22;;;;;;;;;;5065527;28;20048;-68
2021/10/08 11:44:07;;;;;;;9.20;4.32;;;;;;;;;;5063745;28;20124;-68
2021/10/08 11:49:52;;;;;;;7.70;4.80;;;;;;;;;;5066434;28;20072;-69
2021/10/08 11:51:48;;;;;;;;;;;;;;;;;;5050420;28;20064;-68
2021/10/08 11:54:19;;;;;;;11.35;4.57;;;;;;;;;;5058619;28;20392;-69
2021/10/08 11:56:57;;;;;;;14.00;4.72;;;;;;;;;;5060455;28;20460;-69
2021/10/08 11:59:24;;;;;;;;;;;;;;;;;;5060441;28;20074;-68
2021/10/08 12:02:05;;;;;;;9.02;4.93;;;;;;;;;;5064662;28;19955;-69
2021/10/08 12:04:32;;;;;;;9.65;4.63;;;;;;;;;;5063650;28;20052;-68
2021/10/08 12:07:08;;;;;;;10.98;5.28;;;;;;;;;;5058735;28;20136;-68
2021/10/08 12:09:36;;;;;;;12.68;5.28;;;;;;;;;;5062280;28;20099;-68
2021/10/08 12:12:06;;;;;;;11.70;4.80;;;;;;;;;;5063007;28;20401;-68
2021/10/08 12:14:33;;;;;;;13.27;5.47;;;;;;;;;;5062701;28;20524;-68
2021/10/08 12:17:02;;;;;;;10.57;5.43;;;;;;;;;;5064527;28;20156;-68
2021/10/08 12:19:29;;;;;;;10.80;5.45;;;;;;;;;;5067568;28;20100;-68
2021/10/08 12:21:55;;;;;;;13.30;5.45;;;;;;;;;;5064732;28;20049;-68
2021/10/08 12:24:23;;;;;;;14.00;5.30;;;;;;;;;;5064035;28;20080;-69
2021/10/08 12:26:53;;;;;;;20.48;5.90;;;;;;;;;;5057836;28;20058;-68
2021/10/08 12:29:19;;;;;;;10.13;5.00;;;;;;;;;;5055507;28;20160;-69
2021/10/08 12:31:52;;;;;;;9.63;5.10;;;;;;;;;;5060960;28;20079;-69
2021/10/08 12:34:37;;;;;;;10.65;5.18;;;;;;;;;;5059684;28;20060;-68
2021/10/08 12:37:06;;;;;;;11.15;5.43;;;;;;;;;;5060728;28;20123;-69
2021/10/08 12:39:39;;;;;;;8.15;5.18;;;;;;;;;;5062774;28;20048;-68
2021/10/08 12:42:14;;;;;;;7.70;5.05;;;;;;;;;;5058520;28;20040;-69
2021/10/08 12:44:48;;;;;;;11.38;5.43;;;;;;;;;;5065677;28;20136;-68
2021/10/08 12:47:25;;;;;;;11.77;5.80;;;;;;;;;;5059975;28;20518;-68
2021/10/08 12:49:55;;;;;;;13.70;5.80;;;;;;;;;;5062691;28;20088;-68
2021/10/08 12:52:38;;;;;;;10.77;5.75;;;;;;;;;;5061092;28;20127;-68
2021/10/08 12:55:08;;;;;;;10.30;5.18;;;;;;;;;;5061011;28;20496;-68
2021/10/08 12:57:57;;;;;;;9.38;4.90;;;;;;;;;;5058721;28;20102;-69
2021/10/08 13:00:50;;;;;;;8.95;4.75;;;;;;;;;;5062417;28;20072;-68
2021/10/08 13:03:37;;;;;;;10.30;4.50;;;;;;;;;;5061696;28;20052;-68
2021/10/08 13:06:04;;;;;;;9.45;4.72;;;;;;;;;;5060583;28;20156;-68
2021/10/08 13:08:33;;;;;;;10.33;5.20;;;;;;;;;;5063376;28;20473;-68
2021/10/08 13:11:01;;;;;;;11.25;4.65;;;;;;;;;;5063518;28;20370;-68
2021/10/08 13:13:33;;;;;;;8.85;4.70;;;;;;;;;;5057502;28;20159;-68
2021/10/08 13:16:00;;;;;;;8.20;4.68;;;;;;;;;;5060624;28;20147;-68
2021/10/08 13:18:40;;;;;;;10.02;5.43;;;;;;;;;;5060646;28;20123;-68
2021/10/08 13:21:07;;;;;;;11.07;5.10;;;;;;;;;;5061062;28;20128;-68
2021/10/08 13:23:34;;;;;;;9.90;5.82;;;;;;;;;;5060581;28;20156;-68
2021/10/08 13:26:00;;;;;;;10.63;5.30;;;;;;;;;;5059029;28;20524;-68
2021/10/08 13:28:28;;;;;;;11.75;5.72;;;;;;;;;;5066414;28;20124;-68
2021/10/08 13:30:56;;;;;;;11.57;5.50;;;;;;;;;;5069639;28;20053;-68
2021/10/08 13:33:23;;;;;;;10.75;5.45;;;;;;;;;;5067888;28;20070;-68
2021/10/08 13:35:54;;;;;;;9.70;5.00;;;;;;;;;;5065464;28;20136;-68
2021/10/08 13:38:22;;;;;;;8.68;5.20;;;;;;;;;;5059462;28;20556;-68
2021/10/08 13:40:50;;;;;;;12.77;5.22;;;;;;;;;;5067868;28;20079;-68
2021/10/08 13:43:16;;;;;;;10.07;5.50;;;;;;;;;;5068897;28;20123;-68
2021/10/08 13:45:43;;;;;;;12.25;5.85;;;;;;;;;;5061679;28;20127;-68
2021/10/08 13:48:10;;;;;;;10.93;5.45;;;;;;;;;;5066012;28;20127;-68
2021/10/08 13:50:37;;;;;;;7.20;4.70;;;;;;;;;;5063548;28;20212;-68
2021/10/08 13:53:04;;;;;;;14.55;5.13;;;;;;;;;;5063890;28;20102;-68
2021/10/08 13:55:30;;;;;;;;;;;;;;;;;;5062399;28;20133;-68
2021/10/08 13:57:58;;;;;;;12.18;4.85;;;;;;;;;;5061410;28;20006;-68
2021/10/08 14:00:26;;;;;;;8.93;4.28;;;;;;;;;;5066467;28;20136;-68
2021/10/08 14:03:04;;;;;;;18.05;6.38;;;;;;;;;;5066705;28;20466;-68
2021/10/08 14:05:40;;;;;;;8.68;5.07;;;;;;;;;;5066309;28;20062;-68
2021/10/08 14:08:26;;;;;;;11.68;5.22;;;;;;;;;;5061667;28;20510;-68
2021/10/08 14:10:53;;;;;;;10.48;5.25;;;;;;;;;;5064843;28;20056;-68
2021/10/08 14:13:19;;;;;;;11.50;5.50;;;;;;;;;;5061943;28;20135;-68
2021/10/08 14:15:46;;;;;;;13.20;5.30;;;;;;;;;;5064596;28;20412;-68
2021/10/08 14:18:12;;;;;;;10.43;4.95;;;;;;;;;;5067205;28;20232;-68
2021/10/08 14:20:41;;;;;;;9.82;5.47;;;;;;;;;;5067693;28;20135;-68
2021/10/08 14:23:08;;;;;;;14.55;4.35;;;;;;;;;;5062944;28;20087;-68
2021/10/08 14:25:34;;;;;;;;;;;;;;;;;;5059376;28;20152;-68
2021/10/08 14:28:01;;;;;;;13.73;5.78;;;;;;;;;;5065946;28;20384;-68
2021/10/08 14:30:29;;;;;;;12.90;5.72;;;;;;;;;;5068823;28;20048;-68
2021/10/08 14:32:57;;;;;;;9.82;5.60;;;;;;;;;;5062316;28;20049;-68
2021/10/08 14:35:23;;;;;;;;;;;;;;;;;;5058821;28;20061;-68